createdAt,value
2023-05-14T00:02:26.739Z,46.99
2023-05-14T00:04:54.424Z,47.07
2023-05-14T00:07:22.063Z,47.06
2023-05-14T00:09:49.685Z,47.11
2023-05-14T00:12:17.295Z,47.16
2023-05-14T00:14:44.919Z,47.21
2023-05-14T00:17:12.518Z,47.31
2023-05-14T00:19:41.901Z,47.38
2023-05-14T00:22:09.661Z,47.48
2023-05-14T00:24:37.369Z,47.57
2023-05-14T00:27:05.274Z,47.68
2023-05-14T00:29:32.924Z,47.79
2023-05-14T00:32:00.869Z,47.78
2023-05-14T00:34:28.574Z,47.90
2023-05-14T00:36:56.171Z,48.00
2023-05-14T00:39:23.803Z,48.01
2023-05-14T00:41:51.521Z,48.14
2023-05-14T00:44:19.095Z,48.33
2023-05-14T00:46:47.230Z,48.32
2023-05-14T00:49:15.917Z,48.41
2023-05-14T00:51:46.846Z,48.65
2023-05-14T00:54:16.736Z,48.53
2023-05-14T00:56:46.583Z,48.77
2023-05-14T00:59:14.251Z,48.82
2023-05-14T01:01:42.475Z,49.11
2023-05-14T01:04:11.645Z,49.07
2023-05-14T01:06:55.198Z,49.11
2023-05-14T01:09:32.423Z,49.44
2023-05-14T01:12:32.015Z,49.46
2023-05-14T01:15:18.953Z,49.52
2023-05-14T01:17:57.807Z,49.65
2023-05-14T01:20:26.883Z,49.77
2023-05-14T01:22:54.523Z,49.73
2023-05-14T01:25:22.115Z,49.84
2023-05-14T01:27:52.680Z,50.17
2023-05-14T01:30:31.862Z,50.23
2023-05-14T01:33:06.166Z,50.29
2023-05-14T01:35:33.969Z,50.36
2023-05-14T01:38:04.951Z,50.40
2023-05-14T01:40:34.069Z,50.49
2023-05-14T01:43:02.452Z,50.58
2023-05-14T01:45:30.606Z,50.51
2023-05-14T01:47:58.410Z,50.67
2023-05-14T01:50:26.323Z,50.87
2023-05-14T01:52:56.392Z,50.94
2023-05-14T01:55:25.466Z,51.16
2023-05-14T01:57:53.607Z,51.16
2023-05-14T02:00:23.878Z,51.20
2023-05-14T02:02:51.865Z,51.33
2023-05-14T02:05:19.684Z,51.46
2023-05-14T02:07:47.320Z,51.48
2023-05-14T02:10:14.940Z,51.63
2023-05-14T02:12:42.591Z,51.64
2023-05-14T02:15:11.105Z,51.68
2023-05-14T02:17:38.844Z,51.96
2023-05-14T02:20:07.626Z,51.97
2023-05-14T02:22:35.398Z,52.12
2023-05-14T02:25:03.186Z,52.24
2023-05-14T02:27:30.813Z,52.34
2023-05-14T02:30:00.755Z,52.50
2023-05-14T02:32:28.683Z,52.48
2023-05-14T02:34:56.451Z,52.67
2023-05-14T02:37:24.058Z,52.58
2023-05-14T02:39:53.298Z,52.79
2023-05-14T02:42:23.591Z,52.80
2023-05-14T02:44:52.228Z,52.99
2023-05-14T02:47:19.898Z,53.10
2023-05-14T02:49:47.544Z,53.02
2023-05-14T02:52:15.140Z,53.22
2023-05-14T02:54:42.995Z,53.23
2023-05-14T02:57:10.651Z,53.41
2023-05-14T02:59:38.251Z,53.50
2023-05-14T03:02:06.985Z,53.42
2023-05-14T03:04:35.256Z,53.59
2023-05-14T03:07:03.022Z,53.72
2023-05-14T03:09:30.623Z,53.77
2023-05-14T03:11:58.273Z,53.91
2023-05-14T03:14:26.001Z,53.86
2023-05-14T03:16:53.659Z,54.07
2023-05-14T03:19:21.422Z,54.20
2023-05-14T03:21:50.008Z,54.17
2023-05-14T03:24:17.604Z,54.35
2023-05-14T03:26:45.236Z,54.37
2023-05-14T03:29:12.885Z,54.42
2023-05-14T03:31:41.394Z,54.64
2023-05-14T03:34:09.249Z,54.56
2023-05-14T03:36:38.818Z,54.61
2023-05-14T03:39:09.689Z,54.81
2023-05-14T03:41:37.654Z,54.96
2023-05-14T03:44:06.233Z,55.08
2023-05-14T03:46:33.925Z,55.02
2023-05-14T03:49:01.672Z,55.23
2023-05-14T03:51:29.527Z,55.21
2023-05-14T03:54:01.056Z,55.08
2023-05-14T03:56:28.788Z,55.26
2023-05-14T03:58:56.406Z,55.37
2023-05-14T04:01:24.089Z,55.31
2023-05-14T04:03:51.894Z,55.26
2023-05-14T04:06:19.719Z,55.25
2023-05-14T04:08:47.323Z,55.39
2023-05-14T04:11:14.971Z,55.30
2023-05-14T04:13:43.045Z,55.30
2023-05-14T04:16:11.388Z,55.31
2023-05-14T04:18:39.181Z,55.37
2023-05-14T04:21:06.854Z,55.46
2023-05-14T04:23:34.520Z,55.51
2023-05-14T04:26:02.130Z,55.53
2023-05-14T04:28:29.702Z,55.50
2023-05-14T04:30:57.842Z,55.70
2023-05-14T04:33:25.515Z,55.61
2023-05-14T04:35:54.240Z,55.68
2023-05-14T04:38:21.820Z,55.68
2023-05-14T04:40:49.435Z,55.61
2023-05-14T04:43:17.474Z,55.69
2023-05-14T04:45:45.677Z,55.61
2023-05-14T04:48:13.311Z,55.60
2023-05-14T04:50:41.017Z,55.85
2023-05-14T04:53:08.671Z,55.84
2023-05-14T04:55:36.520Z,55.95
2023-05-14T04:58:04.139Z,56.01
2023-05-14T05:00:33.268Z,56.00
2023-05-14T05:03:00.996Z,56.08
2023-05-14T05:05:28.660Z,56.14
2023-05-14T05:07:56.330Z,56.20
2023-05-14T05:10:24.250Z,56.26
2023-05-14T05:12:52.231Z,56.36
2023-05-14T05:15:19.867Z,56.32
2023-05-14T05:17:47.525Z,56.24
2023-05-14T05:20:15.345Z,56.27
2023-05-14T05:22:42.957Z,56.19
2023-05-14T05:25:12.028Z,56.38
2023-05-14T05:27:39.649Z,56.29
2023-05-14T05:30:08.238Z,56.29
2023-05-14T05:32:36.719Z,56.21
2023-05-14T05:35:04.863Z,56.33
2023-05-14T05:37:33.033Z,56.17
2023-05-14T05:40:00.641Z,56.05
2023-05-14T05:42:28.294Z,56.04
2023-05-14T05:44:56.218Z,56.18
2023-05-14T05:47:24.002Z,56.05
2023-05-14T05:49:51.676Z,55.94
2023-05-14T05:52:19.476Z,56.02
2023-05-14T05:54:47.070Z,55.79
2023-05-14T05:57:14.642Z,55.73
2023-05-14T05:59:42.252Z,55.48
2023-05-14T06:02:09.884Z,55.22
2023-05-14T06:04:37.557Z,55.07
2023-05-14T06:07:05.170Z,54.84
2023-05-14T06:09:32.785Z,54.68
2023-05-14T06:12:00.543Z,54.56
2023-05-14T06:14:28.209Z,54.36
2023-05-14T06:16:55.881Z,54.26
2023-05-14T06:19:23.992Z,54.16
2023-05-14T06:21:51.621Z,54.13
2023-05-14T06:24:20.106Z,53.89
2023-05-14T06:26:49.276Z,53.65
2023-05-14T06:29:17.012Z,53.57
2023-05-14T06:31:46.425Z,53.24
2023-05-14T06:34:14.142Z,52.97
2023-05-14T06:36:41.771Z,52.81
2023-05-14T06:39:09.876Z,52.86
2023-05-14T06:41:37.501Z,52.70
2023-05-14T06:44:05.211Z,52.74
2023-05-14T06:46:32.804Z,52.45
2023-05-14T06:49:00.489Z,52.51
2023-05-14T06:51:28.133Z,52.20
2023-05-14T06:53:56.232Z,52.01
2023-05-14T06:56:23.913Z,51.36
2023-05-14T06:58:51.533Z,51.46
2023-05-14T07:01:19.132Z,51.30
2023-05-14T07:03:46.770Z,50.93
2023-05-14T07:06:14.479Z,50.58
2023-05-14T07:08:45.922Z,50.09
2023-05-14T07:11:13.843Z,49.89
2023-05-14T07:13:41.754Z,49.66
2023-05-14T07:16:12.229Z,49.39
2023-05-14T07:18:40.297Z,49.08
2023-05-14T07:21:08.012Z,48.76
2023-05-14T07:23:38.427Z,48.34
2023-05-14T07:26:06.942Z,47.83
2023-05-14T07:28:35.308Z,47.83
2023-05-14T07:31:08.666Z,47.60
2023-05-14T07:33:36.601Z,47.67
2023-05-14T07:36:05.219Z,47.45
2023-05-14T07:38:32.879Z,46.62
2023-05-14T07:41:00.480Z,46.17
2023-05-14T07:43:28.119Z,45.90
2023-05-14T07:45:56.399Z,45.69
2023-05-14T07:48:24.044Z,45.42
2023-05-14T07:50:51.785Z,45.17
2023-05-14T07:53:19.361Z,44.44
2023-05-14T07:55:49.109Z,44.35
2023-05-14T07:58:16.721Z,43.64
2023-05-14T08:00:44.445Z,42.21
2023-05-14T08:03:12.203Z,42.70
2023-05-14T08:05:40.094Z,42.72
2023-05-14T08:08:07.732Z,42.20
2023-05-14T08:10:35.640Z,41.77
2023-05-14T08:13:03.426Z,41.60
2023-05-14T08:15:31.071Z,41.40
2023-05-14T08:18:03.399Z,41.35
2023-05-14T08:20:31.285Z,41.33
2023-05-14T08:22:58.950Z,40.83
2023-05-14T08:25:26.588Z,40.22
2023-05-14T08:27:54.250Z,40.45
2023-05-14T08:30:22.901Z,39.75
2023-05-14T08:32:51.733Z,39.53
2023-05-14T08:35:19.557Z,39.19
2023-05-14T08:37:47.313Z,39.11
2023-05-14T08:40:16.536Z,39.16
2023-05-14T08:42:45.140Z,38.88
2023-05-14T08:45:21.160Z,38.14
2023-05-14T08:47:51.054Z,38.22
2023-05-14T08:50:23.538Z,37.81
2023-05-14T08:52:52.843Z,37.82
2023-05-14T08:55:20.962Z,37.40
2023-05-14T08:57:48.652Z,36.32
2023-05-14T09:00:16.477Z,36.11
2023-05-14T09:02:44.771Z,35.73
2023-05-14T09:05:13.129Z,35.81
2023-05-14T09:07:41.284Z,35.99
2023-05-14T09:10:10.374Z,35.85
2023-05-14T09:12:37.956Z,36.09
2023-05-14T09:15:06.599Z,35.62
2023-05-14T09:17:34.666Z,35.11
2023-05-14T09:20:03.998Z,35.15
2023-05-14T09:22:34.526Z,35.21
2023-05-14T09:25:04.685Z,34.94
2023-05-14T09:27:33.548Z,34.74
2023-05-14T09:30:17.489Z,34.83
2023-05-14T09:32:46.032Z,34.47
2023-05-14T09:35:22.220Z,34.44
2023-05-14T09:37:52.347Z,34.09
2023-05-14T09:40:22.323Z,34.07
2023-05-14T09:42:50.729Z,33.25
2023-05-14T09:45:18.432Z,33.45
2023-05-14T09:47:46.363Z,33.41
2023-05-14T09:50:14.238Z,33.32
2023-05-14T09:52:42.466Z,33.16
2023-05-14T09:55:10.116Z,32.71
2023-05-14T09:57:37.884Z,32.72
2023-05-14T10:00:06.650Z,32.86
2023-05-14T10:02:38.872Z,32.82
2023-05-14T10:05:07.953Z,32.53
2023-05-14T10:07:48.389Z,32.47
2023-05-14T10:10:18.973Z,32.70
2023-05-14T10:12:52.778Z,32.78
2023-05-14T10:15:49.030Z,32.42
2023-05-14T10:18:20.251Z,31.96
2023-05-14T10:20:53.584Z,31.80
2023-05-14T10:23:21.770Z,31.47
2023-05-14T10:25:49.989Z,30.19
2023-05-14T10:28:17.972Z,30.74
2023-05-14T10:30:49.876Z,31.04
2023-05-14T10:33:18.698Z,30.91
2023-05-14T10:36:06.148Z,31.14
2023-05-14T10:38:35.729Z,30.87
2023-05-14T10:41:21.340Z,30.75
2023-05-14T10:43:50.360Z,30.37
2023-05-14T10:46:18.157Z,29.95
2023-05-14T10:48:45.817Z,29.54
2023-05-14T10:51:16.774Z,29.64
2023-05-14T10:53:45.099Z,30.00
2023-05-14T10:56:14.323Z,30.06
2023-05-14T10:58:44.316Z,30.00
2023-05-14T11:01:13.191Z,29.83
2023-05-14T11:03:46.062Z,29.83
2023-05-14T11:06:15.357Z,30.05
2023-05-14T11:08:44.356Z,29.91
2023-05-14T11:11:12.090Z,29.85
2023-05-14T11:13:41.412Z,29.86
2023-05-14T11:16:21.625Z,29.32
2023-05-14T11:19:03.330Z,29.77
2023-05-14T11:21:32.602Z,29.43
2023-05-14T11:24:01.157Z,28.72
2023-05-14T11:26:28.910Z,28.48
2023-05-14T11:28:56.715Z,28.26
2023-05-14T11:31:25.389Z,28.77
2023-05-14T11:33:53.544Z,28.53
2023-05-14T11:36:21.893Z,28.60
2023-05-14T11:38:51.346Z,28.42
2023-05-14T11:41:21.398Z,28.34
2023-05-14T11:43:49.370Z,28.37
2023-05-14T11:46:21.669Z,28.45
2023-05-14T11:48:49.544Z,28.23
2023-05-14T11:51:17.305Z,28.44
2023-05-14T11:53:45.120Z,28.18
2023-05-14T11:56:12.834Z,28.40
2023-05-14T11:58:40.620Z,28.49
2023-05-14T12:01:13.614Z,28.59
2023-05-14T12:03:42.221Z,28.70
2023-05-14T12:06:10.132Z,28.72
2023-05-14T12:08:37.783Z,28.59
2023-05-14T12:11:05.468Z,28.61
2023-05-14T12:13:33.441Z,28.42
2023-05-14T12:16:02.398Z,28.41
2023-05-14T12:18:32.400Z,28.61
2023-05-14T12:21:04.998Z,28.71
2023-05-14T12:23:33.055Z,28.60
2023-05-14T12:26:06.839Z,28.74
2023-05-14T12:28:38.493Z,28.63
2023-05-14T12:31:06.926Z,27.85
2023-05-14T12:33:34.760Z,28.08
2023-05-14T12:36:13.554Z,27.30
2023-05-14T12:38:49.904Z,27.12
2023-05-14T12:41:18.097Z,27.08
2023-05-14T12:43:49.240Z,27.33
2023-05-14T12:46:17.005Z,26.95
2023-05-14T12:48:44.854Z,26.94
2023-05-14T12:51:13.233Z,26.85
2023-05-14T12:53:41.281Z,26.84
2023-05-14T12:56:09.572Z,26.48
2023-05-14T12:58:37.367Z,25.93
2023-05-14T13:01:05.925Z,24.97
2023-05-14T13:03:33.686Z,25.17
2023-05-14T13:06:01.370Z,25.50
2023-05-14T13:08:28.994Z,25.46
2023-05-14T13:10:56.763Z,24.69
2023-05-14T13:13:24.480Z,24.38
2023-05-14T13:15:53.204Z,23.86
2023-05-14T13:18:20.955Z,24.63
2023-05-14T13:20:48.715Z,23.67
2023-05-14T13:23:16.326Z,24.26
2023-05-14T13:25:43.928Z,24.35
2023-05-14T13:28:12.690Z,24.53
2023-05-14T13:30:40.304Z,24.15
2023-05-14T13:33:08.057Z,23.64
2023-05-14T13:35:35.901Z,23.60
2023-05-14T13:38:03.503Z,23.93
2023-05-14T13:40:31.131Z,23.81
2023-05-14T13:42:58.710Z,22.98
2023-05-14T13:45:26.420Z,23.22
2023-05-14T13:47:56.440Z,23.30
2023-05-14T13:50:24.113Z,23.16
2023-05-14T13:52:52.115Z,23.57
2023-05-14T13:55:19.709Z,22.98
2023-05-14T13:57:47.328Z,22.88
2023-05-14T14:00:15.666Z,23.23
2023-05-14T14:02:43.335Z,23.39
2023-05-14T14:05:10.979Z,23.19
2023-05-14T14:07:40.455Z,22.35
2023-05-14T14:10:09.085Z,22.44
2023-05-14T14:12:37.112Z,22.63
2023-05-14T14:15:06.091Z,22.62
2023-05-14T14:17:34.885Z,22.93
2023-05-14T14:20:05.112Z,22.93
2023-05-14T14:22:32.966Z,23.09
2023-05-14T14:25:00.866Z,23.32
2023-05-14T14:27:30.963Z,23.32
2023-05-14T14:29:58.585Z,23.26
2023-05-14T14:32:26.337Z,23.28
2023-05-14T14:34:54.021Z,23.45
2023-05-14T14:37:23.228Z,23.37
2023-05-14T14:39:51.079Z,23.21
2023-05-14T14:42:18.727Z,23.38
2023-05-14T14:44:46.306Z,23.24
2023-05-14T14:47:14.039Z,23.24
2023-05-14T14:49:41.670Z,23.32
2023-05-14T14:52:09.300Z,23.51
2023-05-14T14:54:36.899Z,23.44
2023-05-14T14:57:04.812Z,23.64
2023-05-14T14:59:32.410Z,23.62
2023-05-14T15:02:00.066Z,23.58
2023-05-14T15:04:28.471Z,23.56
2023-05-14T15:06:56.051Z,23.91
2023-05-14T15:09:23.628Z,23.77
2023-05-14T15:11:51.293Z,23.66
2023-05-14T15:14:19.055Z,23.63
2023-05-14T15:16:49.523Z,23.65
2023-05-14T15:19:18.586Z,23.65
2023-05-14T15:21:46.436Z,23.94
2023-05-14T15:24:14.091Z,24.05
2023-05-14T15:26:41.884Z,23.94
2023-05-14T15:29:09.583Z,23.91
2023-05-14T15:31:37.286Z,24.08
2023-05-14T15:34:05.320Z,24.07
2023-05-14T15:36:32.992Z,24.12
2023-05-14T15:39:00.671Z,24.02
2023-05-14T15:41:28.760Z,24.19
2023-05-14T15:43:58.092Z,24.23
2023-05-14T15:46:26.600Z,24.29
2023-05-14T15:48:54.204Z,24.35
2023-05-14T15:51:21.810Z,24.44
2023-05-14T15:53:49.546Z,24.58
2023-05-14T15:56:17.158Z,24.68
2023-05-14T15:58:44.736Z,24.75
2023-05-14T16:01:12.700Z,24.70
2023-05-14T16:03:40.665Z,24.76
2023-05-14T16:06:08.532Z,24.89
2023-05-14T16:08:36.105Z,25.07
2023-05-14T16:11:03.883Z,25.30
2023-05-14T16:13:31.597Z,25.35
2023-05-14T16:15:59.636Z,25.49
2023-05-14T16:18:27.392Z,25.53
2023-05-14T16:20:56.214Z,25.50
2023-05-14T16:23:23.807Z,25.57
2023-05-14T16:25:51.510Z,25.68
2023-05-14T16:28:19.152Z,25.85
2023-05-14T16:30:46.811Z,25.84
2023-05-14T16:33:14.452Z,25.85
2023-05-14T16:35:42.868Z,25.85
2023-05-14T16:38:10.557Z,25.84
2023-05-14T16:40:38.163Z,25.89
2023-05-14T16:43:06.096Z,25.90
2023-05-14T16:45:34.887Z,26.00
2023-05-14T16:48:03.595Z,26.04
2023-05-14T16:50:31.404Z,26.06
2023-05-14T16:52:59.025Z,26.02
2023-05-14T16:55:26.688Z,26.13
2023-05-14T16:57:54.362Z,26.27
2023-05-14T17:00:22.034Z,26.34
2023-05-14T17:02:50.992Z,26.36
2023-05-14T17:05:18.664Z,26.48
2023-05-14T17:07:46.413Z,26.47
2023-05-14T17:10:14.000Z,26.47
2023-05-14T17:12:41.574Z,26.36
2023-05-14T17:15:08.992Z,26.44
2023-05-14T17:17:36.753Z,26.54
2023-05-14T17:20:08.062Z,26.64
2023-05-14T17:22:36.030Z,26.53
2023-05-14T17:25:03.910Z,26.47
2023-05-14T17:27:33.189Z,26.44
2023-05-14T17:30:01.277Z,26.53
2023-05-14T17:32:29.732Z,26.64
2023-05-14T17:34:57.800Z,26.72
2023-05-14T17:37:26.716Z,26.81
2023-05-14T17:39:54.410Z,26.86
2023-05-14T17:42:22.069Z,26.84
2023-05-14T17:44:49.693Z,27.09
2023-05-14T17:47:20.434Z,27.14
2023-05-14T17:49:48.075Z,27.29
2023-05-14T17:52:15.653Z,27.41
2023-05-14T17:54:43.334Z,27.49
2023-05-14T17:57:11.086Z,27.71
2023-05-14T17:59:38.728Z,27.87
2023-05-14T18:02:07.554Z,28.06
2023-05-14T18:04:35.513Z,28.06
2023-05-14T18:07:03.252Z,28.19
2023-05-14T18:09:30.962Z,28.22
2023-05-14T18:11:58.558Z,28.39
2023-05-14T18:14:26.230Z,28.45
2023-05-14T18:16:55.627Z,28.67
2023-05-14T18:19:23.802Z,28.75
2023-05-14T18:21:51.441Z,29.17
2023-05-14T18:24:19.037Z,29.20
2023-05-14T18:26:46.697Z,29.23
2023-05-14T18:29:14.399Z,29.50
2023-05-14T18:31:42.045Z,29.65
2023-05-14T18:34:09.743Z,29.67
2023-05-14T18:36:37.704Z,29.70
2023-05-14T18:39:05.317Z,29.84
2023-05-14T18:41:32.899Z,29.95
2023-05-14T18:44:01.890Z,30.16
2023-05-14T18:46:29.967Z,30.17
2023-05-14T18:48:57.660Z,30.17
2023-05-14T18:51:25.316Z,30.13
2023-05-14T18:53:52.903Z,30.38
2023-05-14T18:56:21.521Z,30.39
2023-05-14T18:58:49.213Z,30.50
2023-05-14T19:01:16.838Z,30.54
2023-05-14T19:03:44.671Z,30.53
2023-05-14T19:06:12.488Z,30.76
2023-05-14T19:08:40.094Z,31.01
2023-05-14T19:11:07.907Z,31.03
2023-05-14T19:13:35.596Z,31.15
2023-05-14T19:16:03.395Z,31.26
2023-05-14T19:18:31.073Z,31.45
2023-05-14T19:20:58.996Z,31.60
2023-05-14T19:23:26.630Z,31.70
2023-05-14T19:25:54.325Z,31.86
2023-05-14T19:28:22.213Z,31.96
2023-05-14T19:30:51.053Z,32.06
2023-05-14T19:33:19.061Z,32.24
2023-05-14T19:35:47.358Z,32.25
2023-05-14T19:38:15.183Z,32.46
2023-05-14T19:40:43.750Z,32.87
2023-05-14T19:43:12.892Z,33.22
2023-05-14T19:45:42.587Z,33.34
2023-05-14T19:48:12.344Z,33.57
2023-05-14T19:50:41.345Z,33.46
2023-05-14T19:53:09.005Z,33.58
2023-05-14T19:55:36.998Z,33.63
2023-05-14T19:58:04.881Z,33.81
2023-05-14T20:00:32.592Z,33.92
2023-05-14T20:03:00.883Z,33.93
2023-05-14T20:05:28.896Z,34.17
2023-05-14T20:07:56.583Z,34.15
2023-05-14T20:10:24.477Z,34.13
2023-05-14T20:12:52.261Z,34.25
2023-05-14T20:15:19.891Z,34.38
2023-05-14T20:17:47.680Z,34.39
2023-05-14T20:20:16.571Z,34.60
2023-05-14T20:22:44.575Z,34.75
2023-05-14T20:25:12.299Z,34.91
2023-05-14T20:27:40.071Z,34.96
2023-05-14T20:30:08.299Z,35.03
2023-05-14T20:32:35.973Z,35.26
2023-05-14T20:35:04.427Z,35.38
2023-05-14T20:37:32.984Z,35.58
2023-05-14T20:40:02.229Z,35.82
2023-05-14T20:42:29.943Z,35.65
2023-05-14T20:44:57.849Z,35.94
2023-05-14T20:47:26.598Z,36.03
2023-05-14T20:49:54.384Z,36.29
2023-05-14T20:52:22.145Z,36.21
2023-05-14T20:54:49.871Z,36.42
2023-05-14T20:57:18.448Z,36.45
2023-05-14T20:59:47.362Z,36.64
2023-05-14T21:02:15.767Z,36.73
2023-05-14T21:04:43.729Z,36.93
2023-05-14T21:07:11.459Z,37.06
2023-05-14T21:09:39.060Z,37.07
2023-05-14T21:12:07.196Z,37.27
2023-05-14T21:14:34.844Z,37.49
2023-05-14T21:17:02.482Z,37.54
2023-05-14T21:19:30.148Z,37.69
2023-05-14T21:21:57.736Z,37.70
2023-05-14T21:24:25.384Z,37.92
2023-05-14T21:26:53.665Z,37.86
2023-05-14T21:29:21.491Z,37.87
2023-05-14T21:31:49.200Z,38.07
2023-05-14T21:34:16.826Z,38.08
2023-05-14T21:36:44.438Z,38.18
2023-05-14T21:39:12.089Z,38.21
2023-05-14T21:41:39.765Z,38.39
2023-05-14T21:44:07.435Z,38.48
2023-05-14T21:46:35.086Z,38.44
2023-05-14T21:49:03.062Z,38.64
2023-05-14T21:51:32.043Z,38.72
2023-05-14T21:53:59.654Z,38.76
2023-05-14T21:56:27.417Z,38.78
2023-05-14T21:58:55.979Z,38.84
2023-05-14T22:01:23.646Z,38.93
2023-05-14T22:03:51.316Z,39.10
2023-05-14T22:06:19.017Z,39.09
2023-05-14T22:08:46.634Z,39.20
2023-05-14T22:11:14.299Z,39.41
2023-05-14T22:13:41.903Z,39.53
2023-05-14T22:16:13.239Z,39.52
2023-05-14T22:21:09.192Z,39.82
2023-05-14T22:23:37.586Z,39.85
2023-05-14T22:26:05.278Z,39.98
2023-05-14T22:28:32.885Z,40.09
2023-05-14T22:31:00.683Z,40.16
2023-05-14T22:33:28.368Z,40.29
2023-05-14T22:35:56.026Z,40.31
2023-05-14T22:38:23.768Z,40.41
2023-05-14T22:40:51.464Z,40.57
2023-05-14T22:43:19.076Z,40.51
2023-05-14T22:45:46.669Z,40.65
2023-05-14T22:48:14.312Z,40.85
2023-05-14T22:50:42.014Z,40.84
2023-05-14T22:53:09.643Z,40.96
2023-05-14T22:55:37.264Z,41.20
2023-05-14T22:58:05.572Z,41.14
2023-05-14T23:00:33.211Z,41.26
2023-05-14T23:03:01.153Z,41.45
2023-05-14T23:05:28.860Z,41.33
2023-05-14T23:07:56.477Z,41.56
2023-05-14T23:10:24.157Z,41.68
2023-05-14T23:12:51.762Z,41.82
2023-05-14T23:15:19.476Z,41.97
2023-05-14T23:17:47.362Z,42.04
2023-05-14T23:20:15.044Z,42.21
2023-05-14T23:22:42.658Z,42.29
2023-05-14T23:25:10.326Z,42.46
2023-05-14T23:27:38.041Z,42.54
2023-05-14T23:30:06.806Z,42.61
2023-05-14T23:32:34.417Z,42.77
2023-05-14T23:35:02.074Z,42.76
2023-05-14T23:37:29.843Z,42.90
2023-05-14T23:39:57.500Z,42.89
2023-05-14T23:42:25.527Z,42.95
2023-05-14T23:44:53.117Z,42.95
2023-05-14T23:47:20.800Z,43.02
2023-05-14T23:49:48.539Z,43.04
2023-05-14T23:52:16.171Z,43.14
2023-05-14T23:54:43.753Z,43.22
2023-05-14T23:57:14.215Z,43.27
2023-05-14T23:59:42.375Z,43.31
